createdAt,value
2022-08-09T00:00:57.978Z,52.36
2022-08-09T00:04:03.548Z,52.72
2022-08-09T00:06:17.893Z,53.57
2022-08-09T00:08:52.037Z,53.52
2022-08-09T00:11:24.352Z,53.04
2022-08-09T00:13:53.435Z,51.96
2022-08-09T00:16:26.350Z,51.95
2022-08-09T00:19:10.447Z,51.88
2022-08-09T00:21:43.223Z,52.25
2022-08-09T00:24:24.558Z,51.93
2022-08-09T00:26:53.945Z,52.08
2022-08-09T00:30:16.314Z,52.07
2022-08-09T00:32:12.757Z,52.45
2022-08-09T00:34:46.282Z,52.35
2022-08-09T00:37:20.095Z,52.02
2022-08-09T00:40:12.954Z,52.22
2022-08-09T00:44:13.637Z,52.38
2022-08-09T00:45:25.491Z,52.46
2022-08-09T00:47:53.591Z,52.39
2022-08-09T00:50:23.834Z,52.68
2022-08-09T00:52:52.634Z,52.67
2022-08-09T00:55:54.255Z,53.37
2022-08-09T00:58:14.501Z,53.59
2022-08-09T01:00:44.958Z,53.64
2022-08-09T01:03:19.251Z,53.71
2022-08-09T01:05:54.603Z,53.55
2022-08-09T01:08:31.021Z,53.67
2022-08-09T01:11:15.053Z,53.66
2022-08-09T01:13:59.157Z,53.26
2022-08-09T01:16:33.549Z,53.33
2022-08-09T01:19:17.027Z,53.34
2022-08-09T01:22:22.845Z,53.25
2022-08-09T01:25:01.563Z,53.71
2022-08-09T01:27:35.179Z,53.03
2022-08-09T01:30:08.436Z,52.78
2022-08-09T01:32:58.993Z,52.79
2022-08-09T01:35:38.790Z,52.91
2022-08-09T01:38:14.928Z,52.63
2022-08-09T01:40:52.990Z,53.12
2022-08-09T01:43:50.522Z,52.77
2022-08-09T01:46:25.236Z,53.15
2022-08-09T01:48:59.755Z,52.89
2022-08-09T01:51:32.120Z,52.81
2022-08-09T01:54:02.508Z,53.75
2022-08-09T01:56:34.376Z,55.63
2022-08-09T01:59:09.279Z,55.82
2022-08-09T02:01:58.272Z,54.92
2022-08-09T02:04:30.792Z,54.91
2022-08-09T02:07:17.995Z,54.73
2022-08-09T02:10:04.356Z,54.71
2022-08-09T02:12:35.015Z,54.96
2022-08-09T02:15:07.612Z,54.86
2022-08-09T02:18:00.292Z,54.66
2022-08-09T02:20:32.959Z,54.89
2022-08-09T02:23:06.216Z,55.07
2022-08-09T02:25:42.657Z,55.49
2022-08-09T02:28:26.386Z,55.25
2022-08-09T02:31:05.819Z,56.10
2022-08-09T02:34:06.692Z,56.13
2022-08-09T02:36:32.465Z,56.64
2022-08-09T02:39:06.075Z,56.29
2022-08-09T02:41:39.968Z,56.07
2022-08-09T02:44:25.488Z,56.05
2022-08-09T02:47:04.080Z,56.32
2022-08-09T02:49:39.011Z,56.07
2022-08-09T02:52:14.696Z,56.02
2022-08-09T02:54:51.190Z,56.14
2022-08-09T02:57:25.040Z,56.32
2022-08-09T03:00:25.347Z,56.63
2022-08-09T03:02:59.995Z,56.73
2022-08-09T03:05:34.169Z,56.79
2022-08-09T03:08:04.561Z,56.61
2022-08-09T03:10:34.109Z,56.51
2022-08-09T03:13:03.398Z,56.92
2022-08-09T03:16:04.650Z,56.69
2022-08-09T03:18:31.326Z,56.67
2022-08-09T03:21:01.365Z,57.11
2022-08-09T03:23:29.555Z,57.41
2022-08-09T03:26:03.621Z,57.42
2022-08-09T03:28:34.987Z,57.39
2022-08-09T03:31:10.238Z,57.50
2022-08-09T03:33:54.345Z,57.62
2022-08-09T03:36:27.764Z,57.66
2022-08-09T03:38:56.991Z,57.78
2022-08-09T03:41:29.815Z,57.59
2022-08-09T03:44:12.939Z,57.62
2022-08-09T03:46:43.774Z,57.95
2022-08-09T03:49:17.426Z,57.70
2022-08-09T03:51:58.726Z,57.89
2022-08-09T03:54:32.250Z,57.66
2022-08-09T03:57:04.455Z,57.75
2022-08-09T03:59:53.733Z,57.80
2022-08-09T04:02:26.400Z,57.96
2022-08-09T04:05:05.854Z,58.10
2022-08-09T04:07:52.958Z,58.06
2022-08-09T04:10:29.257Z,58.18
2022-08-09T04:13:01.061Z,57.94
2022-08-09T04:16:18.406Z,58.07
2022-08-09T04:18:19.461Z,57.87
2022-08-09T04:20:51.978Z,58.38
2022-08-09T04:23:24.618Z,58.34
2022-08-09T04:25:56.201Z,58.43
2022-08-09T04:28:33.846Z,58.81
2022-08-09T04:31:10.057Z,59.13
2022-08-09T04:33:47.704Z,59.13
2022-08-09T04:36:24.214Z,59.54
2022-08-09T04:38:52.578Z,59.38
2022-08-09T04:41:23.662Z,59.37
2022-08-09T04:44:05.291Z,59.21
2022-08-09T04:46:56.885Z,59.60
2022-08-09T04:49:40.923Z,59.59
2022-08-09T04:52:18.363Z,59.83
2022-08-09T04:54:51.675Z,59.71
2022-08-09T04:57:21.474Z,60.00
2022-08-09T04:59:54.180Z,59.88
2022-08-09T05:02:22.846Z,59.82
2022-08-09T05:04:55.136Z,59.96
2022-08-09T05:07:29.299Z,60.08
2022-08-09T05:10:02.120Z,60.16
2022-08-09T05:12:33.227Z,60.10
2022-08-09T05:15:03.327Z,60.17
2022-08-09T05:18:42.869Z,59.75
2022-08-09T05:20:21.385Z,59.70
2022-08-09T05:23:53.546Z,59.72
2022-08-09T05:25:50.905Z,59.92
2022-08-09T05:28:20.010Z,60.12
2022-08-09T05:30:48.224Z,60.16
2022-08-09T05:33:16.510Z,60.22
2022-08-09T05:35:46.986Z,60.20
2022-08-09T05:38:22.097Z,60.37
2022-08-09T05:40:50.793Z,60.42
2022-08-09T05:43:20.687Z,60.73
2022-08-09T05:45:56.638Z,61.88
2022-08-09T05:48:27.816Z,62.61
2022-08-09T05:51:43.072Z,62.48
2022-08-09T05:53:57.268Z,61.91
2022-08-09T05:56:27.594Z,61.51
2022-08-09T05:58:58.842Z,61.03
2022-08-09T06:01:33.655Z,61.26
2022-08-09T06:04:10.415Z,61.06
2022-08-09T06:06:45.089Z,60.68
2022-08-09T06:09:40.726Z,60.68
2022-08-09T06:12:05.268Z,60.67
2022-08-09T06:14:36.004Z,60.57
2022-08-09T06:17:05.173Z,60.51
2022-08-09T06:19:37.717Z,60.24
2022-08-09T06:22:06.300Z,60.21
2022-08-09T06:24:44.418Z,60.39
2022-08-09T06:27:15.454Z,59.59
2022-08-09T06:29:47.957Z,59.17
2022-08-09T06:32:59.712Z,59.10
2022-08-09T06:35:15.274Z,58.86
2022-08-09T06:37:53.387Z,57.92
2022-08-09T06:40:33.422Z,57.63
2022-08-09T06:43:02.296Z,56.98
2022-08-09T06:46:06.311Z,57.49
2022-08-09T06:48:26.132Z,57.50
2022-08-09T06:51:00.263Z,57.16
2022-08-09T06:53:33.273Z,57.66
2022-08-09T06:56:09.770Z,57.96
2022-08-09T07:00:46.416Z,57.44
2022-08-09T07:01:27.597Z,57.30
2022-08-09T07:04:04.382Z,56.68
2022-08-09T07:06:32.882Z,56.79
2022-08-09T07:09:02.714Z,56.39
2022-08-09T07:11:45.549Z,56.71
2022-08-09T07:14:26.786Z,56.43
2022-08-09T07:16:58.337Z,56.50
2022-08-09T07:19:26.663Z,56.45
2022-08-09T07:21:59.070Z,56.65
2022-08-09T07:24:32.197Z,55.91
2022-08-09T07:27:26.084Z,56.23
2022-08-09T07:29:59.775Z,55.47
2022-08-09T07:32:33.742Z,55.15
2022-08-09T07:35:07.969Z,54.99
2022-08-09T07:37:43.839Z,54.67
2022-08-09T07:40:17.354Z,55.24
2022-08-09T07:42:54.558Z,54.36
2022-08-09T07:45:37.974Z,54.84
2022-08-09T07:48:25.888Z,54.07
2022-08-09T07:51:09.507Z,54.17
2022-08-09T07:54:05.178Z,54.14
2022-08-09T07:56:37.097Z,54.09
2022-08-09T07:59:16.062Z,54.66
2022-08-09T08:01:55.737Z,54.29
2022-08-09T08:04:31.657Z,54.31
2022-08-09T08:07:14.838Z,53.41
2022-08-09T08:09:54.950Z,53.09
2022-08-09T08:12:37.031Z,52.74
2022-08-09T08:15:13.882Z,52.71
2022-08-09T08:17:53.153Z,52.68
2022-08-09T08:20:29.111Z,52.44
2022-08-09T08:23:01.558Z,53.01
2022-08-09T08:25:44.780Z,52.35
2022-08-09T08:28:15.153Z,52.78
2022-08-09T08:30:45.360Z,52.06
2022-08-09T08:33:23.866Z,52.47
2022-08-09T08:35:59.733Z,53.06
2022-08-09T08:38:29.091Z,52.68
2022-08-09T08:40:58.532Z,52.40
2022-08-09T08:43:27.714Z,52.33
2022-08-09T08:46:32.209Z,52.04
2022-08-09T08:48:53.963Z,52.14
2022-08-09T08:51:23.737Z,51.78
2022-08-09T08:54:03.717Z,51.30
2022-08-09T08:56:37.915Z,51.37
2022-08-09T08:59:20.036Z,51.00
2022-08-09T09:01:56.811Z,50.79
2022-08-09T09:04:31.359Z,50.64
2022-08-09T09:07:11.102Z,50.57
2022-08-09T09:10:01.979Z,50.97
2022-08-09T09:12:34.246Z,50.84
2022-08-09T09:15:06.243Z,50.98
2022-08-09T09:17:49.057Z,51.11
2022-08-09T09:20:21.302Z,50.37
2022-08-09T09:22:55.428Z,50.42
2022-08-09T09:26:04.822Z,49.65
2022-08-09T09:29:02.371Z,49.98
2022-08-09T09:32:06.632Z,50.26
2022-08-09T09:34:15.273Z,50.27
2022-08-09T09:36:54.371Z,50.37
2022-08-09T09:39:25.644Z,49.92
2022-08-09T09:42:24.359Z,49.17
2022-08-09T09:44:57.668Z,49.15
2022-08-09T09:47:28.324Z,49.08
2022-08-09T09:50:15.076Z,48.98
2022-08-09T09:52:54.397Z,49.18
2022-08-09T09:55:32.656Z,50.02
2022-08-09T09:58:17.405Z,49.20
2022-08-09T10:00:54.321Z,49.62
2022-08-09T10:03:42.937Z,49.27
2022-08-09T10:06:13.365Z,49.10
2022-08-09T10:08:54.632Z,48.92
2022-08-09T10:12:12.532Z,49.19
2022-08-09T10:14:31.017Z,48.85
2022-08-09T10:17:40.339Z,49.22
2022-08-09T10:19:59.830Z,48.73
2022-08-09T10:22:35.497Z,48.49
2022-08-09T10:25:10.971Z,48.64
2022-08-09T10:27:57.329Z,49.07
2022-08-09T10:32:20.933Z,49.84
2022-08-09T10:34:04.294Z,49.21
2022-08-09T10:36:05.110Z,48.35
2022-08-09T10:38:56.300Z,47.76
2022-08-09T10:41:22.548Z,48.15
2022-08-09T10:43:59.864Z,47.98
2022-08-09T10:46:57.465Z,47.91
2022-08-09T10:49:42.325Z,47.50
2022-08-09T10:52:37.008Z,46.91
2022-08-09T10:55:24.011Z,47.93
2022-08-09T10:57:55.974Z,47.39
2022-08-09T11:00:41.685Z,46.95
2022-08-09T11:03:49.829Z,46.73
2022-08-09T11:06:25.198Z,47.43
2022-08-09T11:08:54.182Z,46.38
2022-08-09T11:11:24.378Z,46.13
2022-08-09T11:14:32.052Z,45.97
2022-08-09T11:17:00.717Z,46.38
2022-08-09T11:20:11.888Z,45.84
2022-08-09T11:23:07.158Z,45.01
2022-08-09T11:25:46.197Z,45.46
2022-08-09T11:28:56.644Z,44.81
2022-08-09T11:31:49.091Z,45.58
2022-08-09T11:34:33.039Z,45.60
2022-08-09T11:37:07.341Z,45.38
2022-08-09T11:40:04.049Z,44.64
2022-08-09T11:42:57.676Z,45.33
2022-08-09T11:45:42.713Z,44.74
2022-08-09T11:48:24.952Z,44.48
2022-08-09T11:52:48.640Z,45.20
2022-08-09T11:54:14.750Z,43.82
2022-08-09T11:56:56.380Z,43.79
2022-08-09T11:59:30.336Z,43.43
2022-08-09T12:02:34.788Z,43.24
2022-08-09T12:04:58.067Z,42.76
2022-08-09T12:07:34.527Z,41.65
2022-08-09T12:10:14.041Z,41.19
2022-08-09T12:13:00.391Z,40.77
2022-08-09T12:15:49.287Z,40.02
2022-08-09T12:18:26.172Z,39.11
2022-08-09T12:20:59.138Z,39.00
2022-08-09T12:23:56.618Z,38.53
2022-08-09T12:26:19.895Z,38.13
2022-08-09T12:29:11.659Z,37.92
2022-08-09T12:32:02.507Z,37.72
2022-08-09T12:34:37.919Z,37.33
2022-08-09T12:37:21.888Z,37.18
2022-08-09T12:40:09.292Z,36.95
2022-08-09T12:42:38.039Z,36.98
2022-08-09T12:45:34.005Z,36.13
2022-08-09T12:47:58.395Z,36.83
2022-08-09T12:50:28.643Z,36.29
2022-08-09T12:53:08.147Z,36.72
2022-08-09T12:56:15.740Z,36.76
2022-08-09T12:58:32.900Z,36.80
2022-08-09T13:01:04.590Z,35.97
2022-08-09T13:03:53.757Z,35.23
2022-08-09T13:06:33.831Z,35.26
2022-08-09T13:09:14.673Z,35.31
2022-08-09T13:11:45.307Z,35.50
2022-08-09T13:14:40.976Z,35.77
2022-08-09T13:17:05.028Z,34.68
2022-08-09T13:20:07.525Z,35.10
2022-08-09T13:23:00.068Z,34.67
2022-08-09T13:25:16.818Z,35.46
2022-08-09T13:27:54.856Z,35.34
2022-08-09T13:30:49.123Z,34.98
2022-08-09T13:33:23.680Z,34.58
2022-08-09T13:36:39.506Z,34.82
2022-08-09T13:38:57.642Z,34.48
2022-08-09T13:41:57.681Z,34.44
2022-08-09T13:44:16.831Z,34.03
2022-08-09T13:47:26.520Z,34.05
2022-08-09T13:49:37.451Z,33.86
2022-08-09T13:52:08.946Z,33.97
2022-08-09T13:54:41.587Z,33.61
2022-08-09T13:57:14.443Z,34.17
2022-08-09T13:59:59.353Z,33.71
2022-08-09T14:02:42.636Z,34.15
2022-08-09T14:05:59.405Z,34.46
2022-08-09T14:08:17.439Z,34.13
2022-08-09T14:10:50.298Z,33.82
2022-08-09T14:13:27.715Z,33.09
2022-08-09T14:16:11.479Z,32.19
2022-08-09T14:18:45.368Z,33.10
2022-08-09T14:21:18.578Z,32.85
2022-08-09T14:23:54.656Z,32.59
2022-08-09T14:26:30.469Z,32.89
2022-08-09T14:29:03.267Z,32.38
2022-08-09T14:31:35.989Z,32.15
2022-08-09T14:34:27.226Z,32.71
2022-08-09T14:37:06.508Z,32.06
2022-08-09T14:39:45.395Z,31.92
2022-08-09T14:42:31.744Z,31.33
2022-08-09T14:46:46.096Z,31.28
2022-08-09T14:47:58.575Z,31.45
2022-08-09T14:50:30.692Z,31.87
2022-08-09T14:52:59.882Z,31.49
2022-08-09T14:55:31.930Z,31.34
2022-08-09T14:58:03.258Z,30.86
2022-08-09T15:00:32.323Z,30.49
2022-08-09T15:03:03.804Z,30.86
2022-08-09T15:05:32.296Z,30.30
2022-08-09T15:08:00.608Z,30.31
2022-08-09T15:10:30.791Z,30.67
2022-08-09T15:13:02.961Z,30.16
2022-08-09T15:15:34.293Z,30.11
2022-08-09T15:18:08.365Z,29.23
2022-08-09T15:22:00.667Z,28.81
2022-08-09T15:24:01.528Z,28.89
2022-08-09T15:26:19.213Z,29.38
2022-08-09T15:29:04.172Z,29.96
2022-08-09T15:31:41.518Z,29.01
2022-08-09T15:34:31.888Z,28.87
2022-08-09T15:36:59.552Z,28.81
2022-08-09T15:39:34.622Z,29.30
2022-08-09T15:42:11.898Z,29.12
2022-08-09T15:44:44.348Z,28.50
2022-08-09T15:47:13.996Z,28.17
2022-08-09T15:50:00.665Z,28.33
2022-08-09T15:52:30.703Z,28.32
2022-08-09T15:54:59.460Z,27.99
2022-08-09T15:57:35.083Z,28.04
2022-08-09T16:00:24.698Z,28.53
2022-08-09T16:02:56.723Z,28.91
2022-08-09T16:05:36.253Z,28.40
2022-08-09T16:08:30.905Z,28.76
2022-08-09T16:11:00.274Z,29.26
2022-08-09T16:14:05.385Z,29.30
2022-08-09T16:16:20.353Z,29.12
2022-08-09T16:18:56.145Z,28.84
2022-08-09T16:21:25.448Z,28.40
2022-08-09T16:23:55.539Z,29.02
2022-08-09T16:26:34.610Z,29.29
2022-08-09T16:29:11.833Z,29.08
2022-08-09T16:32:18.206Z,28.45
2022-08-09T16:34:54.475Z,28.42
2022-08-09T16:37:50.582Z,27.50
2022-08-09T16:40:09.889Z,27.83
2022-08-09T16:42:38.907Z,27.50
2022-08-09T16:45:13.781Z,27.37
2022-08-09T16:48:41.280Z,27.39
2022-08-09T16:50:34.126Z,27.36
2022-08-09T16:53:02.640Z,27.30
2022-08-09T16:56:00.311Z,26.78
2022-08-09T16:58:19.650Z,26.47
2022-08-09T17:00:49.771Z,26.98
2022-08-09T17:03:22.107Z,25.44
2022-08-09T17:06:09.329Z,26.10
2022-08-09T17:08:59.847Z,25.66
2022-08-09T17:11:37.652Z,25.17
2022-08-09T17:14:25.326Z,24.88
2022-08-09T17:16:59.878Z,26.01
2022-08-09T17:19:47.543Z,25.59
2022-08-09T17:22:25.064Z,25.42
2022-08-09T17:25:03.388Z,25.97
2022-08-09T17:27:32.253Z,26.19
2022-08-09T17:30:04.901Z,26.20
2022-08-09T17:32:37.777Z,26.40
2022-08-09T17:35:12.434Z,26.59
2022-08-09T17:38:11.496Z,26.89
2022-08-09T17:40:32.683Z,26.84
2022-08-09T17:43:11.170Z,27.49
2022-08-09T17:46:02.806Z,27.00
2022-08-09T17:48:34.154Z,27.12
2022-08-09T17:51:10.010Z,27.17
2022-08-09T17:53:48.151Z,27.04
2022-08-09T17:56:22.026Z,27.62
2022-08-09T17:58:56.480Z,27.37
2022-08-09T18:01:24.481Z,27.64
2022-08-09T18:03:54.517Z,27.09
2022-08-09T18:06:32.061Z,27.34
2022-08-09T18:09:01.759Z,26.94
2022-08-09T18:12:05.059Z,26.78
2022-08-09T18:14:20.744Z,26.41
2022-08-09T18:16:49.693Z,26.84
2022-08-09T18:20:54.367Z,26.85
2022-08-09T18:22:16.715Z,26.32
2022-08-09T18:24:46.399Z,27.02
2022-08-09T18:27:18.799Z,26.24
2022-08-09T18:30:38.508Z,26.56
2022-08-09T18:32:54.601Z,26.47
2022-08-09T18:35:48.096Z,26.83
2022-08-09T18:38:13.382Z,27.48
2022-08-09T18:40:43.068Z,27.68
2022-08-09T18:43:12.814Z,27.96
2022-08-09T18:46:50.228Z,28.35
2022-08-09T18:48:32.808Z,30.21
2022-08-09T18:51:01.296Z,29.26
2022-08-09T18:54:01.003Z,28.93
2022-08-09T18:56:27.767Z,29.39
2022-08-09T18:58:56.793Z,29.00
2022-08-09T19:01:25.667Z,30.19
2022-08-09T19:04:06.076Z,29.82
2022-08-09T19:06:36.238Z,30.14
2022-08-09T19:09:13.497Z,30.04
2022-08-09T19:11:48.495Z,30.13
2022-08-09T19:14:29.210Z,30.47
2022-08-09T19:16:57.549Z,31.01
2022-08-09T19:19:28.275Z,31.27
2022-08-09T19:22:07.113Z,31.00
2022-08-09T19:25:11.758Z,31.90
2022-08-09T19:27:28.364Z,31.86
2022-08-09T19:30:23.040Z,32.26
2022-08-09T19:32:45.581Z,32.99
2022-08-09T19:35:17.278Z,32.70
2022-08-09T19:37:56.386Z,33.22
2022-08-09T19:40:33.375Z,33.72
2022-08-09T19:43:05.377Z,33.89
2022-08-09T19:45:40.492Z,33.96
2022-08-09T19:48:11.808Z,34.46
2022-08-09T19:50:50.717Z,34.74
2022-08-09T19:53:22.145Z,35.05
2022-08-09T19:56:06.120Z,35.45
2022-08-09T19:58:35.805Z,36.08
2022-08-09T20:01:04.677Z,36.40
2022-08-09T20:04:09.550Z,36.54
2022-08-09T20:06:29.858Z,37.13
2022-08-09T20:08:59.859Z,37.44
2022-08-09T20:11:42.880Z,37.18
2022-08-09T20:14:15.074Z,37.70
2022-08-09T20:16:53.510Z,37.72
2022-08-09T20:19:42.659Z,38.25
2022-08-09T20:22:14.305Z,38.11
2022-08-09T20:24:43.021Z,38.39
2022-08-09T20:27:23.798Z,38.65
2022-08-09T20:29:52.193Z,38.79
2022-08-09T20:32:33.238Z,38.84
2022-08-09T20:35:09.319Z,38.93
2022-08-09T20:38:20.349Z,38.94
2022-08-09T20:40:28.149Z,39.14
2022-08-09T20:43:12.200Z,38.94
2022-08-09T20:45:57.850Z,38.95
2022-08-09T20:48:31.791Z,39.17
2022-08-09T20:51:00.778Z,39.39
2022-08-09T20:53:36.414Z,39.44
2022-08-09T20:56:08.892Z,39.40
2022-08-09T20:58:38.448Z,39.42
2022-08-09T21:01:33.556Z,39.31
2022-08-09T21:05:49.755Z,39.23
2022-08-09T21:06:48.393Z,39.41
2022-08-09T21:09:32.654Z,39.23
2022-08-09T21:14:40.163Z,38.94
2022-08-09T21:18:24.158Z,38.82
2022-08-09T21:20:19.214Z,38.97
2022-08-09T21:22:47.085Z,38.94
2022-08-09T21:25:38.419Z,38.60
2022-08-09T21:28:07.558Z,39.13
2022-08-09T21:30:41.540Z,38.87
2022-08-09T21:33:10.283Z,38.85
2022-08-09T21:35:50.708Z,38.58
2022-08-09T21:38:31.115Z,39.16
2022-08-09T21:40:59.862Z,38.58
2022-08-09T21:43:57.148Z,38.62
2022-08-09T21:46:17.489Z,39.14
2022-08-09T21:48:49.483Z,39.11
2022-08-09T21:51:23.955Z,39.40
2022-08-09T21:53:54.963Z,39.62
2022-08-09T21:56:42.947Z,39.81
2022-08-09T21:59:11.787Z,39.63
2022-08-09T22:02:00.759Z,39.71
2022-08-09T22:04:56.520Z,39.70
2022-08-09T22:07:23.376Z,39.92
2022-08-09T22:10:07.364Z,39.74
2022-08-09T22:12:37.301Z,39.80
2022-08-09T22:15:15.723Z,39.62
2022-08-09T22:17:47.312Z,39.78
2022-08-09T22:20:16.974Z,39.82
2022-08-09T22:22:50.683Z,40.23
2022-08-09T22:26:08.310Z,40.25
2022-08-09T22:28:07.619Z,40.13
2022-08-09T22:30:36.721Z,40.08
2022-08-09T22:33:09.227Z,40.20
2022-08-09T22:36:01.400Z,40.11
2022-08-09T22:38:26.674Z,40.40
2022-08-09T22:40:57.926Z,40.62
2022-08-09T22:44:02.115Z,40.84
2022-08-09T22:48:10.776Z,40.80
2022-08-09T22:49:10.229Z,41.39
2022-08-09T22:51:39.493Z,41.33
2022-08-09T22:54:21.267Z,41.51
2022-08-09T22:56:54.742Z,41.58
2022-08-09T22:59:57.932Z,41.32
2022-08-09T23:02:15.954Z,41.77
2022-08-09T23:04:53.949Z,41.93
2022-08-09T23:08:21.072Z,42.46
2022-08-09T23:10:30.196Z,42.18
2022-08-09T23:12:58.596Z,42.09
2022-08-09T23:15:27.217Z,42.36
2022-08-09T23:17:55.615Z,42.09
2022-08-09T23:20:26.171Z,42.55
2022-08-09T23:22:54.231Z,42.93
2022-08-09T23:25:22.175Z,42.29
2022-08-09T23:28:14.334Z,42.77
2022-08-09T23:30:38.188Z,42.81
2022-08-09T23:33:06.270Z,43.21
2022-08-09T23:36:06.419Z,42.89
2022-08-09T23:38:23.946Z,43.08
2022-08-09T23:40:52.291Z,43.09
2022-08-09T23:43:20.550Z,43.23
2022-08-09T23:45:49.098Z,43.84
2022-08-09T23:48:17.077Z,43.46
2022-08-09T23:50:46.602Z,43.83
2022-08-09T23:53:14.731Z,44.66
2022-08-09T23:55:49.238Z,44.21
2022-08-09T23:58:25.852Z,44.06
